createdAt,value
2019-02-21T00:01:17.382Z,19.23
2019-02-21T00:03:46.666Z,19.73
2019-02-21T00:06:15.942Z,19.07
2019-02-21T00:08:45.124Z,20.57
2019-02-21T00:11:14.339Z,19.73
2019-02-21T00:13:43.743Z,20.47
2019-02-21T00:16:13.894Z,19.93
2019-02-21T00:18:43.170Z,20.53
2019-02-21T00:21:12.372Z,20.23
2019-02-21T00:23:41.571Z,20.80
2019-02-21T00:26:10.539Z,20.43
2019-02-21T00:28:39.273Z,20.37
2019-02-21T00:31:08.019Z,20.47
2019-02-21T00:33:36.748Z,21.57
2019-02-21T00:36:05.573Z,20.97
2019-02-21T00:38:34.373Z,20.87
2019-02-21T00:41:03.894Z,20.53
2019-02-21T00:43:32.681Z,22.97
2019-02-21T00:46:01.422Z,21.57
2019-02-21T00:48:30.153Z,21.40
2019-02-21T00:50:58.910Z,21.27
2019-02-21T00:53:27.698Z,21.37
2019-02-21T00:55:56.450Z,21.03
2019-02-21T00:58:25.193Z,21.97
2019-02-21T01:00:53.931Z,22.53
2019-02-21T01:03:22.728Z,20.23
2019-02-21T01:05:51.481Z,20.67
2019-02-21T01:08:20.295Z,20.07
2019-02-21T01:10:49.113Z,20.37
2019-02-21T01:13:17.846Z,20.67
2019-02-21T01:15:46.620Z,21.20
2019-02-21T01:18:15.381Z,19.97
2019-02-21T01:20:44.164Z,19.57
2019-02-21T01:23:12.926Z,20.90
2019-02-21T01:25:41.657Z,21.40
2019-02-21T01:28:10.584Z,19.33
2019-02-21T01:30:39.377Z,21.33
2019-02-21T01:33:08.129Z,19.70
2019-02-21T01:35:36.847Z,19.33
2019-02-21T01:38:05.650Z,19.87
2019-02-21T01:40:34.389Z,20.67
2019-02-21T01:43:03.283Z,20.03
2019-02-21T01:45:32.008Z,20.10
2019-02-21T01:48:00.779Z,20.63
2019-02-21T01:50:31.517Z,20.10
2019-02-21T01:52:59.958Z,19.47
2019-02-21T01:55:28.689Z,20.83
2019-02-21T01:57:57.492Z,19.37
2019-02-21T02:00:26.470Z,20.33
2019-02-21T02:02:55.313Z,19.63
2019-02-21T02:05:24.105Z,19.80
2019-02-21T02:07:52.858Z,18.47
2019-02-21T02:10:21.684Z,20.63
2019-02-21T02:12:50.443Z,19.53
2019-02-21T02:15:19.323Z,18.00
2019-02-21T02:17:48.350Z,18.50
2019-02-21T02:20:17.105Z,18.27
2019-02-21T02:22:45.970Z,18.47
2019-02-21T02:25:14.882Z,18.77
2019-02-21T02:27:43.643Z,18.77
2019-02-21T02:30:12.470Z,17.30
2019-02-21T02:32:41.208Z,17.40
2019-02-21T02:35:10.059Z,18.07
2019-02-21T02:37:38.791Z,17.13
2019-02-21T02:40:07.637Z,18.43
2019-02-21T02:42:38.398Z,17.77
2019-02-21T02:45:07.228Z,17.23
2019-02-21T02:47:35.961Z,17.33
2019-02-21T02:50:05.891Z,18.43
2019-02-21T02:52:34.623Z,18.03
2019-02-21T02:55:04.385Z,18.17
2019-02-21T02:57:33.115Z,17.93
2019-02-21T03:00:03.502Z,16.77
2019-02-21T03:02:32.230Z,17.37
2019-02-21T03:05:01.011Z,18.23
2019-02-21T03:07:29.778Z,18.63
2019-02-21T03:09:58.540Z,16.07
2019-02-21T03:12:27.337Z,17.83
2019-02-21T03:14:56.078Z,17.33
2019-02-21T03:17:24.842Z,17.27
2019-02-21T03:19:53.654Z,16.73
2019-02-21T03:22:22.419Z,17.67
2019-02-21T03:24:51.217Z,17.10
2019-02-21T03:27:19.990Z,16.37
2019-02-21T03:29:48.721Z,17.43
2019-02-21T03:32:17.656Z,17.63
2019-02-21T03:34:46.449Z,16.37
2019-02-21T03:37:15.472Z,16.50
2019-02-21T03:39:44.263Z,17.63
2019-02-21T03:42:13.030Z,16.97
2019-02-21T03:44:41.748Z,16.63
2019-02-21T03:47:10.508Z,16.57
2019-02-21T03:49:39.231Z,16.20
2019-02-21T03:52:07.970Z,16.17
2019-02-21T03:54:36.868Z,16.37
2019-02-21T03:57:06.324Z,16.50
2019-02-21T03:59:35.168Z,17.27
2019-02-21T04:02:05.673Z,17.93
2019-02-21T04:04:34.654Z,16.50
2019-02-21T04:07:03.545Z,16.93
2019-02-21T04:09:32.270Z,16.63
2019-02-21T04:12:01.018Z,17.53
2019-02-21T04:14:29.825Z,17.23
2019-02-21T04:16:58.585Z,17.57
2019-02-21T04:19:27.326Z,18.87
2019-02-21T04:21:56.072Z,18.23
2019-02-21T04:24:24.819Z,18.37
2019-02-21T04:26:53.548Z,19.80
2019-02-21T04:29:22.304Z,19.60
2019-02-21T04:31:51.028Z,18.10
2019-02-21T04:34:19.780Z,18.10
2019-02-21T04:36:48.501Z,18.63
2019-02-21T04:39:17.254Z,18.73
2019-02-21T04:41:45.972Z,19.13
2019-02-21T04:44:14.709Z,20.17
2019-02-21T04:46:43.435Z,18.23
2019-02-21T04:49:12.190Z,18.97
2019-02-21T04:51:40.978Z,18.27
2019-02-21T04:54:09.838Z,20.00
2019-02-21T04:56:38.627Z,18.90
2019-02-21T04:59:07.488Z,19.23
2019-02-21T05:01:36.213Z,19.63
2019-02-21T05:04:05.129Z,20.17
2019-02-21T05:06:33.967Z,20.80
2019-02-21T05:09:02.978Z,21.33
2019-02-21T05:11:31.849Z,20.57
2019-02-21T05:14:00.572Z,21.07
2019-02-21T05:16:29.398Z,21.50
2019-02-21T05:18:58.112Z,21.63
2019-02-21T05:21:26.989Z,22.37
2019-02-21T05:23:55.712Z,23.40
2019-02-21T05:26:24.522Z,23.23
2019-02-21T05:28:53.265Z,21.90
2019-02-21T05:31:22.077Z,22.97
2019-02-21T05:33:50.799Z,23.70
2019-02-21T05:36:19.622Z,23.37
2019-02-21T05:38:48.354Z,23.63
2019-02-21T05:41:17.122Z,24.70
2019-02-21T05:43:45.910Z,23.33
2019-02-21T05:46:14.665Z,21.33
2019-02-21T05:48:43.388Z,24.50
2019-02-21T05:51:12.140Z,23.57
2019-02-21T05:53:40.869Z,23.33
2019-02-21T05:56:09.617Z,23.50
2019-02-21T05:58:38.351Z,25.33
2019-02-21T06:01:07.116Z,26.17
2019-02-21T06:03:36.224Z,25.27
2019-02-21T06:06:05.011Z,25.77
2019-02-21T06:08:33.739Z,26.03
2019-02-21T06:11:02.502Z,26.90
2019-02-21T06:13:31.237Z,26.60
2019-02-21T06:16:00.138Z,25.80
2019-02-21T06:18:29.179Z,26.43
2019-02-21T06:20:57.959Z,27.13
2019-02-21T06:23:26.713Z,25.20
2019-02-21T06:25:59.107Z,27.40
2019-02-21T06:28:25.947Z,29.70
2019-02-21T06:30:54.682Z,28.63
2019-02-21T06:33:23.447Z,30.73
2019-02-21T06:35:52.184Z,29.73
2019-02-21T06:38:21.018Z,28.17
2019-02-21T06:40:50.105Z,28.60
2019-02-21T06:43:18.850Z,30.20
2019-02-21T06:45:47.584Z,30.33
2019-02-21T06:48:16.398Z,33.03
2019-02-21T06:50:47.419Z,32.23
2019-02-21T06:53:15.582Z,32.93
2019-02-21T06:55:44.420Z,32.30
2019-02-21T06:58:13.197Z,32.83
2019-02-21T07:00:41.906Z,31.90
2019-02-21T07:03:15.875Z,32.00
2019-02-21T07:05:41.358Z,31.70
2019-02-21T07:08:10.105Z,30.87
2019-02-21T07:10:38.829Z,30.60
2019-02-21T07:13:07.587Z,30.80
2019-02-21T07:15:36.318Z,30.50
2019-02-21T07:18:05.073Z,31.33
2019-02-21T07:20:33.873Z,31.37
2019-02-21T07:23:02.606Z,30.27
2019-02-21T07:25:32.494Z,30.90
2019-02-21T07:28:11.392Z,29.57
2019-02-21T07:30:31.903Z,31.37
2019-02-21T07:33:00.621Z,29.27
2019-02-21T07:35:29.538Z,29.77
2019-02-21T07:37:58.264Z,29.00
2019-02-21T07:40:27.090Z,29.60
2019-02-21T07:42:58.545Z,29.63
2019-02-21T07:45:26.283Z,29.93
2019-02-21T07:47:55.044Z,29.63
2019-02-21T07:50:23.831Z,31.53
2019-02-21T07:53:02.056Z,32.07
2019-02-21T07:55:23.006Z,32.20
2019-02-21T07:57:51.802Z,30.43
2019-02-21T08:00:20.573Z,31.17
2019-02-21T08:02:49.307Z,31.47
2019-02-21T08:05:18.103Z,30.97
2019-02-21T08:07:49.637Z,31.17
2019-02-21T08:10:17.414Z,31.33
2019-02-21T08:12:46.159Z,33.60
2019-02-21T08:15:14.978Z,29.67
2019-02-21T08:17:43.757Z,29.83
2019-02-21T08:20:12.531Z,29.63
2019-02-21T08:22:41.273Z,29.53
2019-02-21T08:25:10.085Z,29.43
2019-02-21T08:27:38.838Z,28.13
2019-02-21T08:30:09.121Z,29.50
2019-02-21T08:32:37.867Z,29.50
2019-02-21T08:35:07.042Z,29.80
2019-02-21T08:37:36.395Z,29.00
2019-02-21T08:40:05.743Z,29.40
2019-02-21T08:42:34.947Z,29.27
2019-02-21T08:45:04.286Z,29.40
2019-02-21T08:47:33.571Z,28.90
2019-02-21T08:50:03.521Z,27.10
2019-02-21T08:52:32.731Z,29.20
2019-02-21T08:55:04.560Z,30.50
2019-02-21T08:57:33.772Z,29.90
2019-02-21T09:00:04.803Z,29.93
2019-02-21T09:02:36.050Z,28.67
2019-02-21T09:05:09.436Z,30.27
2019-02-21T09:07:38.213Z,29.40
2019-02-21T09:10:10.039Z,29.57
2019-02-21T09:12:39.454Z,30.03
2019-02-21T09:15:15.899Z,30.90
2019-02-21T09:17:45.250Z,30.07
2019-02-21T09:20:14.425Z,30.87
2019-02-21T09:22:43.645Z,30.23
2019-02-21T09:25:13.582Z,29.73
2019-02-21T09:27:42.794Z,30.80
2019-02-21T09:30:14.326Z,29.93
2019-02-21T09:32:43.570Z,31.30
2019-02-21T09:35:13.229Z,31.10
2019-02-21T09:37:42.458Z,30.53
2019-02-21T09:40:13.704Z,30.63
2019-02-21T09:42:43.469Z,31.33
2019-02-21T09:45:17.438Z,30.80
2019-02-21T09:47:46.721Z,31.40
2019-02-21T09:50:16.083Z,30.27
2019-02-21T09:52:45.364Z,31.57
2019-02-21T09:55:17.798Z,29.90
2019-02-21T09:57:47.651Z,30.23
2019-02-21T10:00:21.939Z,29.60
2019-02-21T10:02:54.292Z,31.00
2019-02-21T10:05:22.227Z,29.47
2019-02-21T10:07:51.444Z,29.13
2019-02-21T10:10:20.714Z,29.33
2019-02-21T10:12:49.933Z,30.30
2019-02-21T10:15:20.731Z,30.60
2019-02-21T10:17:50.929Z,29.87
2019-02-21T10:20:21.242Z,29.53
2019-02-21T10:22:50.437Z,29.50
2019-02-21T10:25:23.267Z,29.63
2019-02-21T10:27:52.667Z,29.83
2019-02-21T10:30:22.806Z,30.97
2019-02-21T10:32:52.020Z,30.37
2019-02-21T10:35:21.223Z,27.50
2019-02-21T10:37:50.446Z,31.00
2019-02-21T10:40:19.635Z,30.93
2019-02-21T10:42:48.861Z,29.87
2019-02-21T10:45:20.462Z,30.87
2019-02-21T10:47:49.843Z,29.83
2019-02-21T10:50:19.854Z,30.77
2019-02-21T10:52:49.225Z,28.70
2019-02-21T10:55:18.483Z,29.13
2019-02-21T10:57:47.702Z,27.73
2019-02-21T11:00:22.581Z,27.37
2019-02-21T11:02:51.919Z,27.37
2019-02-21T11:05:21.196Z,27.90
2019-02-21T11:07:50.431Z,28.00
2019-02-21T11:10:22.778Z,27.40
2019-02-21T11:12:52.063Z,26.00
2019-02-21T11:15:23.298Z,26.03
2019-02-21T11:17:52.651Z,25.67
2019-02-21T11:20:22.186Z,26.10
2019-02-21T11:22:51.614Z,25.30
2019-02-21T11:25:20.990Z,24.67
2019-02-21T11:27:51.043Z,23.00
2019-02-21T11:30:21.870Z,22.33
2019-02-21T11:32:51.080Z,23.77
2019-02-21T11:35:20.329Z,23.67
2019-02-21T11:37:49.598Z,22.17
2019-02-21T11:40:18.881Z,21.83
2019-02-21T11:42:48.107Z,22.70
2019-02-21T11:45:20.839Z,22.13
2019-02-21T11:47:50.094Z,23.60
2019-02-21T11:50:19.559Z,20.00
2019-02-21T11:52:48.747Z,19.10
2019-02-21T11:55:25.603Z,18.07
2019-02-21T11:57:54.906Z,18.17
2019-02-21T12:00:26.287Z,18.30
2019-02-21T12:02:55.547Z,18.53
2019-02-21T12:05:32.295Z,19.50
2019-02-21T12:07:56.015Z,19.73
2019-02-21T12:10:25.449Z,18.63
2019-02-21T12:12:54.792Z,18.30
2019-02-21T12:15:24.071Z,18.77
2019-02-21T12:17:53.263Z,18.70
2019-02-21T12:20:22.569Z,18.90
2019-02-21T12:22:51.887Z,19.33
2019-02-21T12:25:24.453Z,17.80
2019-02-21T12:27:53.651Z,18.57
2019-02-21T12:30:23.114Z,17.70
2019-02-21T12:32:52.391Z,17.07
2019-02-21T12:35:29.274Z,17.47
2019-02-21T12:37:52.694Z,16.13
2019-02-21T12:40:22.533Z,14.87
2019-02-21T12:42:51.718Z,15.23
2019-02-21T12:45:25.873Z,15.23
2019-02-21T12:47:55.154Z,15.57
2019-02-21T12:50:24.375Z,14.50
2019-02-21T12:52:53.640Z,15.80
2019-02-21T12:55:29.227Z,14.30
2019-02-21T12:57:53.811Z,15.37
2019-02-21T13:00:23.356Z,16.53
2019-02-21T13:02:52.553Z,15.13
2019-02-21T13:05:21.971Z,14.47
2019-02-21T13:07:51.259Z,14.23
2019-02-21T13:10:24.310Z,14.60
2019-02-21T13:12:53.580Z,15.90
2019-02-21T13:15:22.857Z,16.37
2019-02-21T13:17:52.080Z,17.77
2019-02-21T13:20:21.270Z,17.77
2019-02-21T13:22:50.492Z,16.83
2019-02-21T13:25:19.757Z,19.03
2019-02-21T13:27:49.121Z,17.83
2019-02-21T13:30:18.372Z,18.33
2019-02-21T13:32:48.650Z,17.73
2019-02-21T13:35:17.912Z,19.63
2019-02-21T13:37:47.157Z,18.43
2019-02-21T13:40:16.854Z,18.90
2019-02-21T13:42:48.150Z,19.93
2019-02-21T13:45:18.207Z,19.67
2019-02-21T13:47:47.756Z,19.57
2019-02-21T13:50:20.499Z,19.40
2019-02-21T13:52:49.812Z,20.30
2019-02-21T13:55:19.074Z,19.87
2019-02-21T13:57:48.315Z,19.80
2019-02-21T14:00:22.500Z,19.93
2019-02-21T14:02:51.938Z,20.03
2019-02-21T14:05:21.205Z,20.73
2019-02-21T14:07:50.470Z,20.40
2019-02-21T14:10:19.690Z,20.50
2019-02-21T14:12:48.983Z,20.13
2019-02-21T14:15:21.332Z,19.33
2019-02-21T14:17:50.546Z,20.03
2019-02-21T14:20:19.796Z,20.13
2019-02-21T14:22:49.238Z,19.23
2019-02-21T14:25:18.636Z,19.43
2019-02-21T14:27:48.790Z,20.17
2019-02-21T14:30:20.329Z,19.17
2019-02-21T14:32:49.671Z,19.13
2019-02-21T14:35:18.974Z,18.23
2019-02-21T14:37:48.250Z,18.00
2019-02-21T14:40:17.739Z,19.03
2019-02-21T14:42:46.953Z,19.73
2019-02-21T14:45:21.125Z,17.97
2019-02-21T14:47:50.385Z,19.10
2019-02-21T14:50:19.605Z,19.17
2019-02-21T14:52:48.861Z,18.40
2019-02-21T14:55:18.239Z,19.47
2019-02-21T14:57:47.609Z,18.93
2019-02-21T15:00:19.320Z,19.70
2019-02-21T15:02:48.646Z,18.50
2019-02-21T15:05:18.983Z,19.37
2019-02-21T15:07:48.330Z,19.50
2019-02-21T15:10:17.706Z,19.20
2019-02-21T15:12:47.176Z,19.07
2019-02-21T15:15:24.291Z,19.37
2019-02-21T15:17:53.655Z,19.03
2019-02-21T15:20:23.027Z,19.30
2019-02-21T15:22:54.030Z,19.27
2019-02-21T15:25:23.445Z,19.67
2019-02-21T15:27:52.679Z,19.93
2019-02-21T15:30:25.200Z,19.97
2019-02-21T15:32:54.415Z,20.47
2019-02-21T15:35:23.628Z,20.00
2019-02-21T15:37:52.848Z,19.57
2019-02-21T15:40:22.202Z,20.40
2019-02-21T15:42:52.782Z,20.43
2019-02-21T15:45:24.565Z,21.07
2019-02-21T15:47:54.052Z,20.27
2019-02-21T15:50:23.300Z,19.67
2019-02-21T15:52:54.119Z,19.83
2019-02-21T15:55:23.372Z,20.97
2019-02-21T15:58:03.449Z,20.77
2019-02-21T16:00:24.124Z,20.63
2019-02-21T16:02:53.420Z,19.87
2019-02-21T16:05:22.619Z,20.47
2019-02-21T16:07:51.980Z,20.60
2019-02-21T16:10:23.418Z,21.30
2019-02-21T16:12:53.182Z,21.13
2019-02-21T16:15:22.690Z,20.77
2019-02-21T16:17:53.060Z,21.93
2019-02-21T16:20:23.017Z,21.90
2019-02-21T16:22:52.269Z,23.50
2019-02-21T16:25:25.615Z,22.30
2019-02-21T16:27:55.602Z,22.93
2019-02-21T16:30:25.203Z,22.03
2019-02-21T16:32:54.483Z,21.07
2019-02-21T16:35:23.771Z,21.73
2019-02-21T16:37:52.967Z,22.37
2019-02-21T16:40:22.292Z,21.77
2019-02-21T16:42:51.561Z,20.83
2019-02-21T16:45:21.856Z,21.00
2019-02-21T16:47:51.223Z,22.63
2019-02-21T16:50:29.402Z,21.83
2019-02-21T16:52:51.335Z,21.40
2019-02-21T16:55:22.196Z,22.60
2019-02-21T16:57:51.389Z,21.93
2019-02-21T17:00:23.164Z,21.43
2019-02-21T17:02:52.363Z,21.67
2019-02-21T17:05:21.796Z,21.47
2019-02-21T17:07:51.000Z,21.77
2019-02-21T17:10:21.289Z,23.17
2019-02-21T17:12:50.479Z,22.43
2019-02-21T17:15:19.800Z,22.20
2019-02-21T17:17:49.135Z,22.77
2019-02-21T17:20:24.590Z,23.60
2019-02-21T17:22:53.963Z,25.53
2019-02-21T17:25:23.350Z,25.37
2019-02-21T17:27:52.671Z,24.40
2019-02-21T17:30:22.010Z,24.67
2019-02-21T17:32:51.302Z,24.90
2019-02-21T17:35:20.952Z,24.53
2019-02-21T17:37:50.269Z,26.43
2019-02-21T17:40:23.739Z,26.07
2019-02-21T17:42:53.172Z,25.57
2019-02-21T17:45:22.443Z,25.73
2019-02-21T17:47:51.739Z,25.50
2019-02-21T17:50:21.088Z,25.27
2019-02-21T17:52:50.441Z,26.10
2019-02-21T17:55:19.758Z,27.67
2019-02-21T17:57:49.035Z,26.80
2019-02-21T18:00:22.943Z,27.27
2019-02-21T18:02:52.294Z,26.33
2019-02-21T18:05:21.626Z,26.57
2019-02-21T18:07:50.918Z,26.43
2019-02-21T18:10:20.237Z,26.53
2019-02-21T18:12:49.776Z,25.87
2019-02-21T18:15:18.984Z,27.03
2019-02-21T18:17:48.345Z,25.37
2019-02-21T18:20:17.618Z,26.00
2019-02-21T18:22:46.904Z,27.43
2019-02-21T18:25:37.031Z,26.30
2019-02-21T18:28:06.319Z,26.50
2019-02-21T18:30:35.652Z,26.83
2019-02-21T18:33:05.046Z,27.30
2019-02-21T18:35:34.321Z,26.50
2019-02-21T18:38:03.722Z,27.67
2019-02-21T18:40:33.081Z,29.10
2019-02-21T18:43:02.382Z,28.53
2019-02-21T18:45:31.574Z,32.10
2019-02-21T18:48:00.869Z,27.87
2019-02-21T18:50:37.716Z,27.40
2019-02-21T18:53:01.157Z,29.40
2019-02-21T18:55:30.451Z,28.47
2019-02-21T18:57:59.725Z,28.47
2019-02-21T19:00:29.160Z,29.13
2019-02-21T19:02:58.368Z,29.83
2019-02-21T19:05:35.275Z,29.97
2019-02-21T19:08:05.215Z,31.13
2019-02-21T19:10:29.844Z,32.13
2019-02-21T19:12:59.189Z,31.10
2019-02-21T19:15:28.439Z,30.97
2019-02-21T19:17:57.965Z,31.17
2019-02-21T19:20:27.403Z,30.47
2019-02-21T19:22:56.615Z,31.23
2019-02-21T19:25:26.111Z,29.73
2019-02-21T19:27:55.395Z,30.53
2019-02-21T19:30:30.930Z,31.23
2019-02-21T19:33:00.296Z,31.07
2019-02-21T19:35:29.633Z,31.30
2019-02-21T19:38:09.512Z,34.50
2019-02-21T19:40:30.067Z,31.33
2019-02-21T19:42:59.342Z,31.50
2019-02-21T19:45:28.703Z,31.67
2019-02-21T19:47:58.143Z,31.73
2019-02-21T19:50:27.488Z,31.57
2019-02-21T19:52:56.807Z,30.57
2019-02-21T19:55:26.302Z,30.43
2019-02-21T19:57:55.651Z,31.10
2019-02-21T20:00:25.722Z,31.37
2019-02-21T20:02:55.113Z,30.27
2019-02-21T20:05:24.442Z,29.13
2019-02-21T20:07:53.945Z,28.30
2019-02-21T20:10:23.507Z,29.50
2019-02-21T20:12:52.794Z,28.47
2019-02-21T20:15:22.684Z,28.93
2019-02-21T20:17:52.081Z,28.60
2019-02-21T20:20:24.426Z,30.90
2019-02-21T20:22:53.830Z,31.13
2019-02-21T20:25:22.871Z,30.00
2019-02-21T20:27:51.738Z,30.27
2019-02-21T20:30:20.973Z,29.17
2019-02-21T20:32:49.750Z,28.43
2019-02-21T20:35:18.557Z,29.33
2019-02-21T20:37:47.457Z,29.23
2019-02-21T20:40:16.286Z,28.17
2019-02-21T20:42:45.160Z,26.20
2019-02-21T20:45:14.276Z,27.60
2019-02-21T20:47:43.115Z,25.97
2019-02-21T20:50:12.065Z,26.53
2019-02-21T20:52:40.912Z,26.07
2019-02-21T20:55:12.677Z,26.23
2019-02-21T20:57:41.450Z,26.70
2019-02-21T21:00:11.719Z,25.57
2019-02-21T21:02:40.539Z,26.43
2019-02-21T21:05:09.821Z,26.20
2019-02-21T21:07:39.012Z,25.80
2019-02-21T21:10:10.890Z,26.33
2019-02-21T21:12:40.092Z,25.57
2019-02-21T21:15:14.043Z,26.27
2019-02-21T21:17:43.269Z,26.47
2019-02-21T21:20:17.074Z,27.03
2019-02-21T21:22:45.452Z,26.57
2019-02-21T21:25:16.014Z,26.87
2019-02-21T21:27:45.335Z,29.83
2019-02-21T21:30:16.164Z,29.27
2019-02-21T21:32:45.524Z,29.03
2019-02-21T21:35:14.843Z,30.10
2019-02-21T21:37:44.177Z,31.23
2019-02-21T21:40:17.981Z,30.93
2019-02-21T21:42:47.254Z,32.27
2019-02-21T21:45:17.419Z,33.80
2019-02-21T21:47:47.348Z,33.77
2019-02-21T21:50:17.996Z,36.10
2019-02-21T21:52:47.222Z,38.33
2019-02-21T21:55:16.446Z,38.03
2019-02-21T21:57:45.682Z,40.07
2019-02-21T22:00:22.608Z,40.60
2019-02-21T22:02:51.981Z,41.40
2019-02-21T22:05:22.803Z,40.73
2019-02-21T22:07:52.022Z,41.07
2019-02-21T22:10:22.851Z,37.60
2019-02-21T22:12:52.165Z,40.00
2019-02-21T22:15:24.257Z,41.13
2019-02-21T22:17:53.547Z,42.93
2019-02-21T22:20:22.814Z,45.03
2019-02-21T22:22:52.051Z,41.83
2019-02-21T22:25:21.314Z,44.37
2019-02-21T22:27:50.544Z,44.87
2019-02-21T22:30:21.298Z,45.60
2019-02-21T22:32:50.578Z,46.20
2019-02-21T22:35:19.939Z,47.63
2019-02-21T22:37:49.159Z,44.80
2019-02-21T22:40:19.599Z,45.33
2019-02-21T22:42:48.823Z,47.23
2019-02-21T22:45:18.252Z,47.47
2019-02-21T22:47:47.535Z,44.73
2019-02-21T22:50:19.536Z,47.33
2019-02-21T22:52:48.764Z,43.33
2019-02-21T22:55:18.054Z,43.83
2019-02-21T22:57:47.299Z,45.57
2019-02-21T23:00:34.934Z,44.60
2019-02-21T23:03:07.504Z,46.13
2019-02-21T23:05:57.877Z,44.33
2019-02-21T23:08:42.086Z,45.17
2019-02-21T23:11:11.536Z,41.70
2019-02-21T23:13:40.879Z,44.40
2019-02-21T23:16:10.252Z,43.47
2019-02-21T23:18:39.628Z,47.17
2019-02-21T23:21:09.046Z,46.50
2019-02-21T23:23:38.433Z,46.17
2019-02-21T23:26:07.763Z,46.03
2019-02-21T23:28:36.962Z,43.60
2019-02-21T23:31:18.229Z,44.53
2019-02-21T23:33:47.475Z,47.27
2019-02-21T23:36:16.762Z,47.73
2019-02-21T23:38:46.031Z,44.30
2019-02-21T23:41:15.254Z,44.80
2019-02-21T23:43:47.084Z,45.97
2019-02-21T23:46:15.652Z,49.00
2019-02-21T23:48:45.105Z,48.20
2019-02-21T23:51:14.326Z,47.80
2019-02-21T23:53:43.660Z,50.23
2019-02-21T23:56:12.882Z,47.67
2019-02-21T23:58:42.089Z,48.13
